Time;durP1;ratioP1;P1;durP2;ratioP2;P2;SDS_P1;SDS_P2;PMS_P1;PMS_P2;Temp;Humidity;BMP_temperature;BMP_pressure;BME280_temperature;BME280_humidity;BME280_pressure;Samples;Min_cycle;Max_cycle;Signal;HPM_P1;HPM_P2
2022/08/22 00:00:53;;;;;;;6.30;4.57;;;;;;;18.68;100.00;99343.13;5032271;28;20046;-80
2022/08/22 00:03:31;;;;;;;6.75;4.90;;;;;;;18.65;100.00;99342.63;5032012;28;20073;-79
2022/08/22 00:06:14;;;;;;;6.55;4.63;;;;;;;18.69;100.00;99342.13;5014336;28;20077;-79
2022/08/22 00:08:56;;;;;;;6.38;4.30;;;;;;;18.70;100.00;99341.09;5036258;28;20091;-78
2022/08/22 00:11:33;;;;;;;7.57;4.40;;;;;;;18.66;100.00;99342.47;5036188;28;20041;-78
2022/08/22 00:14:10;;;;;;;5.80;4.53;;;;;;;18.68;100.00;99342.28;5018325;28;20049;-78
2022/08/22 00:16:46;;;;;;;6.00;3.88;;;;;;;18.67;100.00;99346.00;5018737;28;20422;-83
2022/08/22 00:19:24;;;;;;;6.25;4.38;;;;;;;18.65;100.00;99342.63;5036184;28;20049;-83
2022/08/22 00:21:59;;;;;;;7.63;4.65;;;;;;;18.52;100.00;99321.44;5036274;28;20050;-83
2022/08/22 00:24:34;;;;;;;6.53;4.35;;;;;;;18.65;100.00;99338.06;5018654;28;20053;-83
2022/08/22 00:27:07;;;;;;;5.90;4.50;;;;;;;18.71;100.00;99340.09;5035874;28;20049;-83
2022/08/22 00:29:42;;;;;;;5.60;3.85;;;;;;;18.55;100.00;99345.44;5035645;28;20063;-86
2022/08/22 00:32:19;;;;;;;6.15;4.40;;;;;;;18.53;100.00;99342.91;5035702;28;20116;-87
2022/08/22 00:34:54;;;;;;;4.90;4.10;;;;;;;18.50;100.00;99339.69;5017789;28;20458;-86
2022/08/22 00:37:30;;;;;;;6.72;4.38;;;;;;;18.52;100.00;99343.91;5036047;28;20041;-86
2022/08/22 00:40:11;;;;;;;6.38;4.22;;;;;;;18.50;100.00;99339.69;5017607;28;20077;-86
2022/08/22 00:43:01;;;;;;;8.05;4.60;;;;;;;18.47;100.00;99340.88;5035563;28;20171;-88
2022/08/22 00:46:09;;;;;;;6.95;4.72;;;;;;;18.49;100.00;99344.25;4987271;28;20433;-90
2022/08/22 00:49:03;;;;;;;6.95;4.85;;;;;;;18.51;100.00;99346.78;5036408;28;20489;-89
2022/08/22 00:51:50;;;;;;;7.05;4.90;;;;;;;18.48;100.00;99350.66;5036416;28;20038;-88
2022/08/22 00:54:29;;;;;;;5.47;4.60;;;;;;;18.53;100.00;99339.38;5035224;28;20121;-82
2022/08/22 00:57:23;;;;;;;7.35;4.43;;;;;;;18.54;100.00;99341.06;5035160;28;20052;-82
2022/08/22 01:00:07;;;;;;;7.50;4.53;;;;;;;18.63;100.00;99350.03;5035217;28;20053;-80
2022/08/22 01:02:53;;;;;;;7.15;3.83;;;;;;;18.55;100.00;99343.59;5035020;28;20046;-79
2022/08/22 01:05:47;;;;;;;7.93;3.85;;;;;;;18.61;100.00;99347.47;5035143;28;20042;-80
2022/08/22 01:08:31;;;;;;;6.65;3.75;;;;;;;18.60;100.00;99345.78;5034870;28;20038;-83
2022/08/22 01:11:16;;;;;;;5.07;3.67;;;;;;;18.59;100.00;99344.09;5034772;28;20073;-79
2022/08/22 01:14:12;;;;;;;6.47;3.83;;;;;;;18.72;100.00;99349.91;5034907;28;20386;-79
2022/08/22 01:17:00;;;;;;;5.82;3.90;;;;;;;18.78;100.00;99346.53;5035152;28;20065;-78
2022/08/22 01:20:05;;;;;;;5.88;3.38;;;;;;;18.71;100.00;99347.34;5016870;28;20052;-81
2022/08/22 01:23:02;;;;;;;5.15;3.20;;;;;;;18.72;100.00;99352.63;5002213;28;20068;-81
2022/08/22 01:25:56;;;;;;;5.05;3.17;;;;;;;18.72;100.00;99339.09;5002523;28;20111;-81
2022/08/22 01:29:07;;;;;;;5.88;2.80;;;;;;;18.72;100.00;99347.22;5035326;28;20046;-81
2022/08/22 01:32:28;;;;;;;5.82;2.95;;;;;;;18.68;100.00;99343.13;5034842;28;20441;-80
2022/08/22 01:35:21;;;;;;;4.95;2.90;;;;;;;18.60;100.00;99345.78;5034541;28;20486;-80
2022/08/22 01:38:22;;;;;;;5.75;2.60;;;;;;;18.72;100.00;99343.63;5034695;28;20510;-79
2022/08/22 01:41:24;;;;;;;4.95;2.47;;;;;;;18.84;100.00;99348.56;5031958;28;20050;-79
2022/08/22 01:44:03;;;;;;;4.60;2.78;;;;;;;18.64;100.00;99346.31;5046510;28;20112;-80
2022/08/22 01:46:36;;;;;;;5.65;2.55;;;;;;;18.61;100.00;99342.06;5043539;28;20049;-81
2022/08/22 01:49:14;;;;;;;4.07;2.63;;;;;;;18.64;100.00;99341.75;5034826;28;20099;-81
2022/08/22 01:51:50;;;;;;;3.70;2.50;;;;;;;18.84;100.00;99343.16;5034571;28;20351;-81
2022/08/22 01:54:30;;;;;;;6.28;2.58;;;;;;;18.72;100.00;99349.91;5034054;28;20064;-81
2022/08/22 01:57:04;;;;;;;5.10;2.75;;;;;;;18.79;100.00;99350.91;5034072;28;20068;-82
2022/08/22 01:59:35;;;;;;;5.03;2.90;;;;;;;18.83;100.00;99349.59;5034003;28;20562;-78
2022/08/22 02:02:36;;;;;;;5.90;2.83;;;;;;;18.82;100.00;99345.19;5034131;28;20430;-78
2022/08/22 02:05:11;;;;;;;5.68;2.70;;;;;;;18.63;100.00;99336.53;5033989;28;20045;-79
2022/08/22 02:07:48;;;;;;;6.18;3.17;;;;;;;18.57;100.00;99340.72;5034138;28;20042;-78
2022/08/22 02:10:23;;;;;;;4.38;3.00;;;;;;;18.46;100.00;99336.47;5016248;28;20061;-78
2022/08/22 02:13:02;;;;;;;4.53;3.08;;;;;;;18.47;100.00;99340.03;5034506;28;20467;-78
2022/08/22 02:15:43;;;;;;;6.30;3.30;;;;;;;18.55;100.00;99335.50;5034143;28;20041;-78
2022/08/22 02:18:17;;;;;;;4.50;3.17;;;;;;;18.48;100.00;99336.31;5034036;28;20041;-78
2022/08/22 02:20:59;;;;;;;6.45;3.10;;;;;;;18.48;100.00;99333.59;5033592;28;20072;-77
2022/08/22 02:23:43;;;;;;;6.30;3.05;;;;;;;18.56;100.00;99328.22;5033671;28;20046;-78
2022/08/22 02:26:16;;;;;;;4.25;3.03;;;;;;;18.62;100.00;99329.41;5033378;28;20128;-78
2022/08/22 02:28:52;;;;;;;;;;;;;;;18.65;100.00;99331.84;5033875;28;20051;-80
2022/08/22 02:31:36;;;;;;;5.18;2.75;;;;;;;18.71;100.00;99331.16;5032795;28;19921;-78
2022/08/22 02:34:24;;;;;;;4.20;2.90;;;;;;;18.63;100.00;99317.63;5032986;28;20068;-79
2022/08/22 02:36:57;;;;;;;4.65;3.00;;;;;;;18.52;100.00;99322.28;5033243;28;20116;-78
2022/08/22 02:39:35;;;;;;;4.78;2.80;;;;;;;18.51;100.00;99319.78;5033461;28;20164;-78
2022/08/22 02:42:17;;;;;;;4.78;3.15;;;;;;;18.38;100.00;99324.81;5033271;28;20049;-82
2022/08/22 02:44:56;;;;;;;4.53;2.90;;;;;;;18.36;100.00;99318.75;5033495;28;20045;-81
2022/08/22 02:47:34;;;;;;;4.35;3.13;;;;;;;18.32;100.00;99320.91;5033488;28;20448;-88
2022/08/22 02:50:16;;;;;;;7.00;3.25;;;;;;;18.38;100.00;99319.41;5034029;28;20060;-88
2022/08/22 02:52:56;;;;;;;4.90;3.15;;;;;;;18.27;100.00;99323.25;5033690;28;20470;-89
2022/08/22 02:55:36;;;;;;;4.93;3.13;;;;;;;18.23;100.00;99320.03;5032790;28;20041;-82
2022/08/22 02:58:11;;;;;;;5.30;3.17;;;;;;;18.25;100.00;99317.19;5033422;28;20068;-88
2022/08/22 03:00:47;;;;;;;6.13;2.60;;;;;;;18.31;100.00;99330.00;5033861;28;20048;-90
2022/08/22 03:03:21;;;;;;;6.03;3.03;;;;;;;18.38;100.00;99324.81;5032519;28;20482;-81
2022/08/22 03:05:57;;;;;;;4.70;3.03;;;;;;;18.39;100.00;99332.75;5032592;28;20046;-81
2022/08/22 03:08:32;;;;;;;4.75;3.00;;;;;;;18.35;100.00;99325.16;5032713;28;20426;-80
2022/08/22 03:11:15;;;;;;;5.22;2.90;;;;;;;18.51;100.00;99325.16;5032921;28;20053;-81
2022/08/22 03:13:55;;;;;;;6.30;3.00;;;;;;;18.52;100.00;99332.25;5032875;28;20052;-81
2022/08/22 03:16:33;;;;;;;7.30;2.70;;;;;;;18.58;100.00;99334.31;5032592;28;20076;-81
2022/08/22 03:19:08;;;;;;;5.78;3.40;;;;;;;18.42;100.00;99336.97;5032662;28;20064;-82
2022/08/22 03:21:51;;;;;;;6.00;3.17;;;;;;;18.41;100.00;99338.81;5032433;28;20087;-79
2022/08/22 03:24:25;;;;;;;4.88;2.95;;;;;;;18.42;100.00;99332.41;5032038;28;20048;-80
2022/08/22 03:27:02;;;;;;;6.60;3.58;;;;;;;18.29;100.00;99332.88;5032128;28;20177;-80
2022/08/22 03:29:35;;;;;;;7.07;3.40;;;;;;;18.44;100.00;99329.56;5032151;28;20397;-80
2022/08/22 03:32:08;;;;;;;5.32;3.28;;;;;;;18.30;100.00;99339.97;5032127;28;20057;-80
2022/08/22 03:34:37;;;;;;;4.97;3.80;;;;;;;18.35;100.00;99341.34;5032304;28;20125;-78
2022/08/22 03:37:13;;;;;;;7.82;3.83;;;;;;;18.30;100.00;99342.66;5032442;28;20068;-79
2022/08/22 03:39:53;;;;;;;5.50;3.75;;;;;;;18.43;100.00;99341.34;5032249;28;20386;-79
2022/08/22 03:43:04;;;;;;;6.43;3.63;;;;;;;18.45;100.00;99347.44;5031385;28;20049;-79
2022/08/22 03:46:00;;;;;;;7.85;4.43;;;;;;;18.36;100.00;99337.63;5031323;28;20080;-86
2022/08/22 03:49:04;;;;;;;6.65;4.05;;;;;;;18.42;100.00;99345.91;5032149;28;20081;-86
2022/08/22 03:51:47;;;;;;;6.63;4.30;;;;;;;18.37;100.00;99333.91;5029066;28;20060;-85
2022/08/22 03:54:39;;;;;;;5.65;4.22;;;;;;;18.42;100.00;99334.25;5032088;28;20394;-81
2022/08/22 03:57:53;;;;;;;6.80;4.28;;;;;;;18.37;100.00;99339.31;5032022;28;20144;-82
2022/08/22 04:00:35;;;;;;;6.57;4.85;;;;;;;18.45;100.00;99347.44;4999521;28;20117;-81
2022/08/22 04:03:26;;;;;;;6.10;4.80;;;;;;;18.48;100.00;99344.41;5014211;28;20049;-81
2022/08/22 04:06:24;;;;;;;6.93;4.63;;;;;;;18.58;100.00;99350.50;5031932;28;20223;-84
2022/08/22 04:09:14;;;;;;;6.85;4.30;;;;;;;18.72;100.00;99347.22;5016257;28;20057;-84
2022/08/22 04:12:19;;;;;;;7.97;4.75;;;;;;;18.83;100.00;99351.44;5030960;28;20060;-83
2022/08/22 04:15:15;;;;;;;8.95;4.80;;;;;;;18.84;100.00;99350.44;5029311;28;20053;-77
2022/08/22 04:18:21;;;;;;;7.18;4.70;;;;;;;18.75;100.00;99349.56;5025142;28;20071;-77
2022/08/22 04:21:16;;;;;;;8.27;5.05;;;;;;;18.81;100.00;99351.59;4996988;28;20167;-77
2022/08/22 04:24:14;;;;;;;8.95;5.43;;;;;;;18.85;100.00;99358.38;5031931;28;20406;-77
2022/08/22 04:26:50;;;;;;;8.73;4.82;;;;;;;18.73;100.00;99362.41;5031645;28;20459;-77
2022/08/22 04:29:23;;;;;;;8.40;5.10;;;;;;;18.75;100.00;99365.78;5031318;28;20045;-78
2022/08/22 04:32:07;;;;;;;6.47;4.93;;;;;;;18.92;100.00;99365.81;5032105;28;20072;-78
2022/08/22 04:34:48;;;;;;;8.93;5.00;;;;;;;18.74;100.00;99368.66;5014027;28;20049;-78
2022/08/22 04:37:23;;;;;;;8.27;5.40;;;;;;;18.87;100.00;99363.59;5031181;28;20065;-78
2022/08/22 04:39:57;;;;;;;6.22;5.20;;;;;;;18.95;100.00;99360.91;5031524;28;20131;-78
2022/08/22 04:42:33;;;;;;;8.98;5.25;;;;;;;19.04;100.00;99370.72;5013335;28;20433;-78
2022/08/22 04:45:07;;;;;;;6.68;5.45;;;;;;;19.02;100.00;99363.78;5013835;28;20057;-78
2022/08/22 04:47:39;;;;;;;6.40;4.80;;;;;;;19.08;100.00;99371.22;5031897;28;20045;-77
2022/08/22 04:50:20;;;;;;;7.53;5.40;;;;;;;19.08;100.00;99372.06;5031466;28;20120;-77
2022/08/22 04:53:13;;;;;;;9.25;5.50;;;;;;;19.21;100.00;99376.16;5032657;28;20123;-78
2022/08/22 04:55:51;;;;;;;9.13;5.32;;;;;;;19.12;100.00;99375.28;5026477;28;20053;-78
2022/08/22 04:58:32;;;;;;;9.52;5.65;;;;;;;19.15;100.00;99373.09;5034828;28;20104;-79
2022/08/22 05:01:17;;;;;;;9.20;5.93;;;;;;;19.20;100.00;99372.56;5035003;28;20048;-79
2022/08/22 05:03:53;;;;;;;8.25;5.50;;;;;;;19.30;100.00;99373.28;5035128;28;20390;-82
2022/08/22 05:06:27;;;;;;;8.75;5.50;;;;;;;19.29;100.00;99376.13;5035017;28;20504;-83
2022/08/22 05:08:59;;;;;;;7.97;5.55;;;;;;;19.22;100.00;99372.41;5034883;28;20064;-83
2022/08/22 05:11:30;;;;;;;9.25;5.45;;;;;;;19.26;100.00;99376.47;5035132;28;20383;-81
2022/08/22 05:14:03;;;;;;;8.30;5.97;;;;;;;19.24;100.00;99376.63;5017327;28;20386;-81
2022/08/22 05:16:38;;;;;;;9.68;6.15;;;;;;;19.29;100.00;99389.63;5034804;28;20048;-84
2022/08/22 05:19:21;;;;;;;9.48;5.65;;;;;;;19.40;100.00;99379.34;5035171;28;20049;-87
2022/08/22 05:22:03;;;;;;;11.32;6.07;;;;;;;19.52;100.00;99379.84;5017817;28;20050;-81
2022/08/22 05:24:37;;;;;;;8.48;5.95;;;;;;;19.50;100.00;99389.16;5034704;28;20055;-81
2022/08/22 05:27:11;;;;;;;10.23;6.53;;;;;;;19.49;100.00;99398.25;5017228;28;20417;-85
2022/08/22 05:29:45;;;;;;;11.13;6.72;;;;;;;19.54;100.00;99393.19;5034412;28;20052;-84
2022/08/22 05:32:22;;;;;;;10.75;7.47;;;;;;;19.39;100.00;99385.75;5034388;28;20055;-82
2022/08/22 05:34:54;;;;;;;10.43;7.07;;;;;;;19.44;100.00;99396.91;5034634;28;20128;-83
2022/08/22 05:37:32;;;;;;;12.18;6.78;;;;;;;19.48;100.00;99399.25;5034056;28;20045;-85
2022/08/22 05:40:01;;;;;;;9.95;6.70;;;;;;;19.51;100.00;99407.06;5034699;28;20172;-88
2022/08/22 05:42:33;;;;;;;11.52;7.57;;;;;;;19.59;100.00;99412.47;5034360;28;20453;-85
2022/08/22 05:45:05;;;;;;;11.45;6.68;;;;;;;19.71;100.00;99406.56;5034724;28;20041;-83
2022/08/22 05:47:42;;;;;;;8.73;6.35;;;;;;;19.83;100.00;99415.16;5034058;28;20045;-78
2022/08/22 05:50:13;;;;;;;9.95;7.20;;;;;;;19.90;100.00;99413.47;5034462;28;20053;-78
2022/08/22 05:52:58;;;;;;;11.88;6.78;;;;;;;19.97;100.00;99414.44;5016251;28;20084;-78
2022/08/22 05:55:31;;;;;;;8.23;6.53;;;;;;;20.21;100.00;99415.41;5034013;28;20136;-78
2022/08/22 05:58:36;;;;;;;9.45;6.75;;;;;;;20.17;100.00;99416.75;5016488;28;20413;-81
2022/08/22 06:01:19;;;;;;;12.15;7.05;;;;;;;20.33;100.00;99416.72;5033643;28;20501;-76
2022/08/22 06:03:59;;;;;;;11.93;6.83;;;;;;;20.39;100.00;99420.59;5033619;28;20046;-73
2022/08/22 06:06:32;;;;;;;8.85;6.50;;;;;;;20.58;100.00;99418.34;5033637;28;20120;-75
2022/08/22 06:09:07;;;;;;;11.63;7.22;;;;;;;20.59;100.00;99421.91;5015560;28;20064;-74
2022/08/22 06:11:40;;;;;;;9.10;6.78;;;;;;;20.56;100.00;99422.25;5033172;28;20048;-74
2022/08/22 06:14:32;;;;;;;13.18;8.02;;;;;;;20.50;100.00;99439.19;5033564;28;20057;-77
2022/08/22 06:17:09;;;;;;;12.27;7.45;;;;;;;20.44;100.00;99429.91;5033241;28;20087;-74
2022/08/22 06:19:41;;;;;;;11.27;6.85;;;;;;;20.71;100.00;99425.88;5015234;28;20111;-74
2022/08/22 06:22:13;;;;;;;10.95;7.38;;;;;;;20.74;100.00;99427.41;5033164;28;20045;-74
2022/08/22 06:24:50;;;;;;;10.95;7.18;;;;;;;20.92;100.00;99419.00;5033373;28;20046;-76
2022/08/22 06:27:21;;;;;;;10.43;8.37;;;;;;;21.03;100.00;99429.44;5032997;28;20041;-79
2022/08/22 06:29:55;;;;;;;11.10;7.83;;;;;;;21.07;100.00;99425.34;5033247;28;20286;-79
2022/08/22 06:32:30;;;;;;;11.52;8.10;;;;;;;21.19;100.00;99431.19;5015281;28;20294;-80
2022/08/22 06:35:24;;;;;;;14.57;8.18;;;;;;;21.02;100.00;99428.59;5032736;28;20063;-84
2022/08/22 06:37:58;;;;;;;11.07;7.88;;;;;;;21.13;100.00;99435.47;5033324;28;20052;-81
2022/08/22 06:40:30;;;;;;;13.27;8.13;;;;;;;21.26;100.00;99435.75;5035776;28;20124;-77
2022/08/22 06:42:59;;;;;;;11.48;7.85;;;;;;;21.54;100.00;99436.06;5032696;28;20057;-74
2022/08/22 06:45:31;;;;;;;13.10;7.97;;;;;;;21.58;100.00;99440.06;5032448;28;20050;-75
2022/08/22 06:48:14;;;;;;;13.57;8.23;;;;;;;21.58;100.00;99442.78;5032894;28;20045;-74
2022/08/22 06:50:43;;;;;;;;;;;;;;;21.66;100.00;99437.28;5032799;28;20121;-79
2022/08/22 06:53:16;;;;;;;12.25;8.32;;;;;;;21.81;100.00;99433.75;5032644;28;19928;-78
2022/08/22 06:55:49;;;;;;;12.23;7.85;;;;;;;21.98;100.00;99429.84;5015418;28;20562;-80
2022/08/22 06:58:20;;;;;;;14.93;8.80;;;;;;;22.27;100.00;99429.91;5032981;28;20069;-85
2022/08/22 07:00:55;;;;;;;12.85;8.85;;;;;;;22.29;100.00;99432.44;5032650;28;20045;-79
2022/08/22 07:03:43;;;;;;;11.80;8.68;;;;;;;22.20;100.00;99437.13;5032107;28;20494;-82
2022/08/22 07:06:15;;;;;;;12.57;8.52;;;;;;;22.25;100.00;99440.13;5032904;28;20474;-73
2022/08/22 07:08:44;;;;;;;14.27;8.77;;;;;;;22.18;100.00;99431.03;5032359;28;20052;-74
2022/08/22 07:11:18;;;;;;;13.07;8.60;;;;;;;22.14;100.00;99432.44;5031849;28;20045;-74
2022/08/22 07:13:53;;;;;;;11.18;8.43;;;;;;;22.38;100.00;99438.63;5032077;28;20060;-73
2022/08/22 07:16:29;;;;;;;14.13;7.95;;;;;;;22.28;100.00;99442.47;5031721;28;20053;-73
2022/08/22 07:18:58;;;;;;;14.93;8.45;;;;;;;21.81;100.00;99447.31;5014628;28;20077;-73
2022/08/22 07:21:30;;;;;;;12.30;8.20;;;;;;;21.77;100.00;99446.03;5030303;28;20560;-73
2022/08/22 07:24:03;;;;;;;14.82;8.13;;;;;;;21.83;100.00;99450.72;5031809;28;20037;-72
2022/08/22 07:26:46;;;;;;;14.07;9.25;;;;;;;21.75;100.00;99445.38;5013724;28;20052;-73
2022/08/22 07:29:26;;;;;;;14.07;8.75;;;;;;;21.91;100.00;99437.09;5014231;28;20053;-73
2022/08/22 07:32:02;;;;;;;12.18;7.72;;;;;;;22.17;100.00;99445.63;5031862;28;20048;-73
2022/08/22 07:34:46;;;;;;;12.02;8.25;;;;;;;22.24;100.00;99451.19;5031530;28;20045;-73
2022/08/22 07:37:19;;;;;;;11.95;8.80;;;;;;;22.35;100.00;99442.56;5013898;28;20051;-73
2022/08/22 07:39:53;;;;;;;18.00;8.90;;;;;;;22.90;100.00;99449.38;5031569;28;20046;-72
2022/08/22 07:42:30;;;;;;;12.68;8.45;;;;;;;23.17;100.00;99450.53;5031977;28;20538;-72
2022/08/22 07:45:09;;;;;;;9.95;6.80;;;;;;;23.27;100.00;99445.63;5011872;28;20066;-73
2022/08/22 07:47:52;;;;;;;12.95;7.25;;;;;;;23.34;100.00;99443.78;5011791;28;20074;-73
2022/08/22 07:50:24;;;;;;;10.55;6.72;;;;;;;23.56;100.00;99452.81;5011881;28;20125;-73
2022/08/22 07:52:53;;;;;;;10.10;6.28;;;;;;;23.24;100.00;99465.03;5012057;28;20133;-73
2022/08/22 07:55:24;;;;;;;10.82;5.97;;;;;;;23.09;100.00;99461.53;5011638;28;20045;-73
2022/08/22 07:57:57;;;;;;;10.55;6.90;;;;;;;23.46;100.00;99457.75;5011765;28;20058;-72
2022/08/22 08:00:27;;;;;;;11.18;6.68;;;;;;;23.62;100.00;99462.09;5011795;28;20053;-73
2022/08/22 08:02:59;;;;;;;11.10;6.43;;;;;;;23.10;100.00;99457.75;5011582;28;20163;-73
2022/08/22 08:05:31;;;;;;;12.32;7.55;;;;;;;23.09;100.00;99461.53;5011574;28;20088;-73
2022/08/22 08:08:03;;;;;;;11.25;7.60;;;;;;;23.29;100.00;99461.75;5011696;28;20053;-73
2022/08/22 08:10:36;;;;;;;11.57;7.55;;;;;;;22.87;100.00;99457.06;4993836;28;20058;-73
2022/08/22 08:13:09;;;;;;;9.80;6.97;;;;;;;22.77;100.00;99458.16;5011626;28;20120;-72
2022/08/22 08:15:40;;;;;;;11.50;6.78;;;;;;;22.96;100.00;99464.06;5011360;28;20499;-72
2022/08/22 08:18:12;;;;;;;13.55;7.32;;;;;;;22.96;100.00;99466.78;5011601;28;20053;-72
2022/08/22 08:20:41;;;;;;;11.52;6.85;;;;;;;22.96;100.00;99461.34;5011378;28;20120;-73
2022/08/22 08:23:18;;;;;;;10.07;6.72;;;;;;;23.20;100.00;99463.75;5011589;28;20486;-72
2022/08/22 08:25:57;;;;;;;11.38;7.05;;;;;;;23.25;100.00;99465.88;4994087;28;20482;-72
2022/08/22 08:28:36;;;;;;;10.50;6.82;;;;;;;23.39;100.00;99468.53;4995519;28;20111;-73
2022/08/22 08:31:11;;;;;;;9.48;6.20;;;;;;;23.51;100.00;99459.84;4997826;28;20050;-73
2022/08/22 08:33:44;;;;;;;8.98;6.30;;;;;;;23.50;100.00;99469.06;4997323;28;20145;-73
2022/08/22 08:36:26;;;;;;;8.98;6.63;;;;;;;23.54;100.00;99467.63;5015218;28;20046;-73
2022/08/22 08:39:02;;;;;;;9.55;6.43;;;;;;;23.35;100.00;99456.34;5015192;28;20409;-73
2022/08/22 08:41:46;;;;;;;10.23;6.75;;;;;;;23.37;100.00;99454.31;5014769;28;20100;-73
2022/08/22 08:44:34;;;;;;;10.65;7.28;;;;;;;23.18;100.00;99464.97;5029680;28;20054;-72
2022/08/22 08:47:22;;;;;;;11.20;6.70;;;;;;;23.35;100.00;99464.50;5035198;28;20397;-73
2022/08/22 08:50:11;;;;;;;10.35;7.38;;;;;;;23.79;100.00;99466.22;5034758;28;20045;-73
2022/08/22 08:52:58;;;;;;;11.68;7.15;;;;;;;24.23;100.00;99460.50;5034755;28;20052;-73
2022/08/22 08:55:42;;;;;;;11.82;7.75;;;;;;;24.27;100.00;99466.38;5034898;28;20049;-77
2022/08/22 08:58:40;;;;;;;9.93;7.18;;;;;;;24.27;100.00;99466.38;5034646;28;20049;-73
2022/08/22 09:01:28;;;;;;;11.20;7.80;;;;;;;23.76;100.00;99463.91;5001495;28;20053;-73
2022/08/22 09:04:25;;;;;;;12.18;8.35;;;;;;;23.75;100.00;99473.13;5016483;28;20041;-74
2022/08/22 09:07:17;;;;;;;12.43;8.07;;;;;;;23.55;100.00;99464.75;5016612;28;20489;-73
2022/08/22 09:10:07;;;;;;;13.25;8.23;;;;;;;23.76;100.00;99461.19;5034057;28;20069;-73
2022/08/22 09:12:59;;;;;;;12.48;8.43;;;;;;;24.25;100.00;99457.56;5015946;28;20068;-74
2022/08/22 09:16:05;;;;;;;12.75;8.27;;;;;;;24.13;100.00;99459.16;5016094;28;20055;-73
2022/08/22 09:18:59;;;;;;;12.38;8.25;;;;;;;24.00;100.00;99457.19;5016496;28;20397;-73
2022/08/22 09:22:15;;;;;;;12.95;8.80;;;;;;;23.84;100.00;99458.31;5034289;28;20098;-73
2022/08/22 09:25:07;;;;;;;11.32;7.78;;;;;;;24.23;100.00;99460.50;4937297;29;20134;-73
2022/08/22 09:27:43;;;;;;;12.32;7.82;;;;;;;24.18;100.00;99462.97;5022070;28;20128;-73
2022/08/22 09:30:14;;;;;;;11.95;7.97;;;;;;;24.38;100.00;99460.41;5034075;28;20053;-72
2022/08/22 09:32:49;;;;;;;10.25;7.35;;;;;;;24.64;100.00;99467.06;5033872;28;20049;-73
2022/08/22 09:35:26;;;;;;;11.35;7.03;;;;;;;24.50;100.00;99466.97;5016056;28;20061;-73
2022/08/22 09:38:10;;;;;;;11.73;6.60;;;;;;;24.48;100.00;99466.31;5033987;28;20055;-73
2022/08/22 09:40:47;;;;;;;10.38;7.63;;;;;;;24.40;100.00;99465.66;5015944;28;20049;-73
2022/08/22 09:43:21;;;;;;;11.38;6.95;;;;;;;24.17;100.00;99468.63;5019523;28;20103;-73
2022/08/22 09:46:01;;;;;;;9.88;6.65;;;;;;;24.11;100.00;99472.97;5033326;28;20049;-73
2022/08/22 09:48:48;;;;;;;12.52;7.40;;;;;;;23.89;100.00;99474.91;5032236;28;20506;-77
2022/08/22 09:51:33;;;;;;;10.52;7.05;;;;;;;24.18;100.00;99473.03;5033618;28;20092;-73
2022/08/22 09:54:14;;;;;;;;;;;;;;;24.24;100.00;99478.53;5034154;28;20442;-73
2022/08/22 09:56:58;;;;;;;9.18;7.00;;;;;;;24.51;100.00;99475.97;5033479;28;19921;-73
2022/08/22 09:59:41;;;;;;;12.82;6.90;;;;;;;24.49;100.00;99484.38;5033835;28;20045;-73
2022/08/22 10:02:25;;;;;;;10.07;7.00;;;;;;;24.45;100.00;99480.38;5032060;28;20049;-73
2022/08/22 10:05:07;;;;;;;8.57;6.60;;;;;;;24.55;100.00;99477.28;5033202;28;20046;-73
2022/08/22 10:08:02;;;;;;;9.50;6.10;;;;;;;24.04;100.00;99484.88;5031824;28;20521;-73
2022/08/22 10:10:48;;;;;;;10.73;6.18;;;;;;;24.16;100.00;99472.38;5032941;28;20119;-73
2022/08/22 10:13:30;;;;;;;9.27;6.55;;;;;;;24.45;100.00;99485.81;5033003;28;20438;-73
2022/08/22 10:16:15;;;;;;;9.52;6.43;;;;;;;24.61;100.00;99483.78;5031881;28;20084;-73
2022/08/22 10:18:53;;;;;;;10.85;7.07;;;;;;;24.62;100.00;99480.06;5032820;28;20041;-73
2022/08/22 10:21:34;;;;;;;9.43;5.85;;;;;;;24.71;100.00;99489.75;5033055;28;20038;-73
2022/08/22 10:24:16;;;;;;;9.63;6.47;;;;;;;24.75;100.00;99491.03;5033068;28;20086;-73
2022/08/22 10:26:56;;;;;;;9.13;6.60;;;;;;;24.73;100.00;99483.03;5032789;28;20045;-73
2022/08/22 10:29:46;;;;;;;9.65;6.20;;;;;;;25.04;100.00;99487.19;5031378;28;20053;-73
2022/08/22 10:32:29;;;;;;;9.90;6.53;;;;;;;24.94;100.00;99483.97;5031702;28;20140;-73
2022/08/22 10:35:03;;;;;;;10.48;7.15;;;;;;;24.74;100.00;99478.44;5031794;28;20050;-73
2022/08/22 10:37:40;;;;;;;9.10;6.60;;;;;;;25.05;100.00;99480.69;5032567;28;20448;-74
2022/08/22 10:40:23;;;;;;;12.27;6.82;;;;;;;25.32;100.00;99479.72;5032717;28;20049;-74
2022/08/22 10:42:56;;;;;;;9.55;6.93;;;;;;;25.42;100.00;99479.31;5032469;28;20418;-73
2022/08/22 10:45:31;;;;;;;10.63;7.13;;;;;;;25.49;100.00;99482.91;5032780;28;20084;-73
2022/08/22 10:48:32;;;;;;;9.43;6.93;;;;;;;25.44;100.00;99479.13;5014749;28;20049;-73
2022/08/22 10:51:15;;;;;;;10.55;7.35;;;;;;;25.50;100.00;99483.75;4993275;28;20050;-73
2022/08/22 10:54:21;;;;;;;10.52;6.85;;;;;;;25.32;100.00;99473.44;5032211;28;20427;-73
2022/08/22 10:57:03;;;;;;;8.50;6.10;;;;;;;25.59;100.00;99466.97;5029987;28;20128;-73
2022/08/22 10:59:43;;;;;;;11.13;6.65;;;;;;;25.79;100.00;99469.75;5014556;28;20131;-76
2022/08/22 11:02:31;;;;;;;11.23;6.47;;;;;;;26.00;100.00;99467.84;5032717;28;20046;-73
2022/08/22 11:05:22;;;;;;;9.65;6.70;;;;;;;26.01;100.00;99469.53;5014211;28;20097;-73
2022/08/22 11:08:03;;;;;;;9.43;6.13;;;;;;;26.19;100.00;99459.63;5031832;28;20041;-74
2022/08/22 11:10:53;;;;;;;10.00;6.13;;;;;;;26.29;100.00;99463.81;5032252;28;20050;-73
2022/08/22 11:13:30;;;;;;;11.02;7.15;;;;;;;26.33;100.00;99462.34;5031889;28;20052;-74
2022/08/22 11:16:05;;;;;;;12.15;7.20;;;;;;;26.17;100.00;99459.00;5031760;28;20069;-74
2022/08/22 11:18:57;;;;;;;9.90;6.88;;;;;;;26.34;100.00;99464.84;5031755;28;20045;-74
2022/08/22 11:21:50;;;;;;;9.55;6.25;;;;;;;26.66;100.00;99457.66;5031625;28;20088;-74
2022/08/22 11:24:50;;;;;;;8.65;6.43;;;;;;;26.68;100.00;99457.44;5031945;28;20037;-73
2022/08/22 11:27:34;;;;;;;8.30;5.65;;;;;;;26.53;100.00;99460.41;5018771;28;20061;-73
2022/08/22 11:30:11;;;;;;;9.93;6.55;;;;;;;26.67;100.00;99466.72;5013968;28;20049;-74
2022/08/22 11:33:13;;;;;;;10.65;6.50;;;;;;;26.74;100.00;99449.22;5013916;28;20064;-74
2022/08/22 11:35:45;;;;;;;9.88;6.40;;;;;;;26.56;100.00;99453.72;5031662;28;20045;-74
2022/08/22 11:38:24;;;;;;;9.82;6.00;;;;;;;26.47;100.00;99447.63;5031690;28;20052;-73
2022/08/22 11:41:05;;;;;;;10.27;6.72;;;;;;;26.03;100.00;99451.88;5013652;28;20049;-73
2022/08/22 11:43:46;;;;;;;9.25;6.40;;;;;;;25.77;100.00;99454.59;5031866;28;20133;-72
2022/08/22 11:46:21;;;;;;;9.27;6.53;;;;;;;25.33;100.00;99445.09;5013647;28;20068;-73
2022/08/22 11:49:07;;;;;;;9.98;6.90;;;;;;;24.94;100.00;99457.53;5013478;28;20064;-72
2022/08/22 11:52:08;;;;;;;10.63;7.03;;;;;;;24.68;100.00;99450.06;5031849;28;20170;-72
2022/08/22 11:55:15;;;;;;;11.73;7.38;;;;;;;24.53;100.00;99454.84;5031209;28;20064;-73
2022/08/22 11:57:47;;;;;;;10.23;7.68;;;;;;;24.63;100.00;99454.47;5031481;28;20402;-72
2022/08/22 12:00:23;;;;;;;11.02;7.32;;;;;;;24.61;100.00;99445.63;5013842;28;20049;-72
2022/08/22 12:03:21;;;;;;;10.60;7.28;;;;;;;24.70;100.00;99447.13;5033902;28;20073;-72
2022/08/22 12:05:57;;;;;;;12.60;7.43;;;;;;;24.85;100.00;99439.66;4984635;28;20172;-72
2022/08/22 12:08:56;;;;;;;14.27;8.20;;;;;;;24.71;100.00;99443.41;5035701;28;20038;-72
2022/08/22 12:11:32;;;;;;;13.52;8.43;;;;;;;25.07;100.00;99441.22;5005600;28;20555;-72
2022/08/22 12:14:04;;;;;;;12.23;7.95;;;;;;;24.99;100.00;99443.25;5017319;28;20119;-72
2022/08/22 12:16:48;;;;;;;11.32;7.80;;;;;;;25.19;100.00;99437.91;5035356;28;20045;-72
2022/08/22 12:19:24;;;;;;;12.75;8.18;;;;;;;25.30;100.00;99440.03;5035324;28;20049;-72
2022/08/22 12:22:21;;;;;;;12.50;7.95;;;;;;;25.53;100.00;99440.50;5035041;28;20080;-73
2022/08/22 12:25:07;;;;;;;13.88;9.23;;;;;;;25.74;100.00;99439.47;5034837;28;20049;-73
2022/08/22 12:27:50;;;;;;;11.35;7.90;;;;;;;25.82;100.00;99439.28;5035032;28;20046;-73